createdAt,value
2019-04-14T00:03:17.260Z,2.50
2019-04-14T00:07:23.089Z,2.40
2019-04-14T00:11:26.035Z,2.50
2019-04-14T00:15:36.235Z,2.40
2019-04-14T00:19:34.952Z,2.40
2019-04-14T00:23:39.042Z,2.40
2019-04-14T00:27:43.217Z,2.40
2019-04-14T00:31:47.655Z,2.40
2019-04-14T00:35:53.976Z,2.40
2019-04-14T00:39:59.763Z,2.40
2019-04-14T00:44:10.554Z,2.30
2019-04-14T00:48:18.963Z,2.30
2019-04-14T00:52:21.222Z,2.30
2019-04-14T00:56:25.887Z,2.30
2019-04-14T01:00:29.778Z,2.20
2019-04-14T01:04:33.777Z,2.20
2019-04-14T01:08:38.104Z,2.20
2019-04-14T01:12:41.711Z,2.20
2019-04-14T01:16:45.300Z,2.20
2019-04-14T01:20:49.242Z,2.10
2019-04-14T01:24:53.282Z,2.10
2019-04-14T01:28:57.007Z,2.10
2019-04-14T01:33:01.085Z,2.00
2019-04-14T01:37:05.168Z,2.00
2019-04-14T01:41:08.876Z,1.90
2019-04-14T01:45:14.631Z,2.00
2019-04-14T01:49:20.333Z,1.90
2019-04-14T01:53:31.557Z,1.90
2019-04-14T01:57:52.706Z,1.90
2019-04-14T02:01:58.747Z,1.80
2019-04-14T02:06:02.630Z,1.70
2019-04-14T02:10:06.737Z,1.70
2019-04-14T02:14:14.653Z,1.60
2019-04-14T02:18:25.438Z,1.60
2019-04-14T02:22:29.624Z,1.50
2019-04-14T02:26:43.850Z,1.50
2019-04-14T02:30:48.410Z,1.50
2019-04-14T02:35:10.907Z,1.40
2019-04-14T02:39:20.954Z,1.40
2019-04-14T02:43:29.396Z,1.30
2019-04-14T02:47:53.795Z,1.30
2019-04-14T02:51:45.932Z,1.20
2019-04-14T02:56:08.180Z,1.20
2019-04-14T03:00:07.895Z,1.20
2019-04-14T03:04:11.214Z,1.20
2019-04-14T03:12:36.211Z,1.20
2019-04-14T03:17:05.667Z,1.20
2019-04-14T03:21:19.751Z,1.20
2019-04-14T03:25:22.902Z,1.30
2019-04-14T03:29:34.742Z,1.30
2019-04-14T03:37:50.329Z,1.30
2019-04-14T03:42:00.889Z,1.30
2019-04-14T03:50:08.103Z,1.30
2019-04-14T03:54:12.373Z,1.30
2019-04-14T03:57:58.374Z,1.30
2019-04-14T04:02:03.115Z,1.30
2019-04-14T04:06:07.573Z,1.30
2019-04-14T04:10:13.641Z,1.30
2019-04-14T04:14:18.151Z,1.30
2019-04-14T04:18:29.433Z,1.30
2019-04-14T04:22:50.032Z,1.20
2019-04-14T04:27:04.660Z,1.20
2019-04-14T04:31:13.444Z,1.20
2019-04-14T04:35:19.648Z,1.30
2019-04-14T04:39:25.794Z,1.30
2019-04-14T04:43:29.748Z,1.30
2019-04-14T04:47:33.804Z,1.40
2019-04-14T04:51:37.862Z,1.40
2019-04-14T04:55:41.660Z,1.50
2019-04-14T04:59:47.355Z,1.50
2019-04-14T05:03:51.448Z,1.50
2019-04-14T05:07:55.454Z,1.60
2019-04-14T05:12:17.416Z,1.70
2019-04-14T05:16:21.440Z,1.70
2019-04-14T05:20:25.175Z,1.70
2019-04-14T05:24:31.092Z,1.80
2019-04-14T05:28:35.284Z,1.80
2019-04-14T05:32:39.140Z,1.90
2019-04-14T05:36:43.274Z,1.90
2019-04-14T05:40:47.476Z,1.90
2019-04-14T05:44:51.513Z,2.00
2019-04-14T05:48:55.782Z,2.00
2019-04-14T05:53:00.031Z,2.10
2019-04-14T05:57:04.441Z,2.20
2019-04-14T06:01:09.183Z,2.30
2019-04-14T06:05:13.053Z,2.30
2019-04-14T06:09:17.872Z,2.40
2019-04-14T06:13:21.565Z,2.50
2019-04-14T06:17:25.143Z,2.70
2019-04-14T06:21:28.848Z,2.90
2019-04-14T06:25:32.501Z,3.10
2019-04-14T06:29:36.095Z,3.20
2019-04-14T06:33:51.177Z,3.40
2019-04-14T06:37:59.481Z,3.50
2019-04-14T06:42:03.435Z,3.60
2019-04-14T06:46:07.019Z,3.70
2019-04-14T06:50:10.663Z,3.80
2019-04-14T06:54:15.397Z,3.80
2019-04-14T06:58:18.984Z,3.90
2019-04-14T07:02:22.561Z,3.90
2019-04-14T07:06:26.140Z,3.90
2019-04-14T07:10:29.739Z,4.00
2019-04-14T07:14:33.392Z,4.10
2019-04-14T07:18:36.962Z,4.20
2019-04-14T07:22:40.564Z,4.40
2019-04-14T07:26:44.133Z,4.40
2019-04-14T07:30:55.306Z,4.40
2019-04-14T07:35:03.494Z,4.30
2019-04-14T07:39:25.385Z,4.30
2019-04-14T07:43:46.906Z,4.40
2019-04-14T07:47:52.135Z,4.40
2019-04-14T07:52:00.291Z,4.50
2019-04-14T07:56:05.526Z,4.70
2019-04-14T08:00:20.335Z,4.80
2019-04-14T08:04:34.519Z,4.90
2019-04-14T08:08:38.303Z,4.90
2019-04-14T08:12:42.097Z,5.00
2019-04-14T08:16:45.765Z,5.10
2019-04-14T08:20:49.401Z,5.10
2019-04-14T08:24:53.028Z,5.30
2019-04-14T08:28:56.613Z,5.40
2019-04-14T08:33:00.226Z,5.40
2019-04-14T08:37:03.892Z,5.40
2019-04-14T08:41:07.860Z,5.40
2019-04-14T08:45:29.538Z,5.40
2019-04-14T08:49:37.492Z,5.50
2019-04-14T08:53:51.465Z,5.60
2019-04-14T08:57:56.757Z,5.70
2019-04-14T09:02:14.115Z,5.70
2019-04-14T09:06:19.395Z,5.80
2019-04-14T09:10:24.611Z,6.00
2019-04-14T09:14:28.182Z,6.00
2019-04-14T09:18:31.768Z,6.00
2019-04-14T09:22:35.354Z,5.80
2019-04-14T09:26:38.933Z,5.70
2019-04-14T09:30:42.525Z,5.60
2019-04-14T09:34:46.092Z,5.60
2019-04-14T09:38:49.675Z,5.60
2019-04-14T09:42:53.259Z,5.70
2019-04-14T09:46:56.839Z,5.80
2019-04-14T09:51:04.954Z,6.00
2019-04-14T09:55:06.972Z,6.00
2019-04-14T09:59:10.576Z,6.10
2019-04-14T10:03:14.180Z,6.00
2019-04-14T10:07:17.753Z,5.80
2019-04-14T10:11:21.535Z,5.70
2019-04-14T10:15:25.113Z,5.90
2019-04-14T10:19:29.024Z,6.00
2019-04-14T10:23:32.612Z,6.00
2019-04-14T10:27:36.187Z,6.10
2019-04-14T10:31:39.759Z,6.00
2019-04-14T10:35:43.367Z,6.00
2019-04-14T10:39:47.294Z,5.80
2019-04-14T10:43:51.108Z,5.70
2019-04-14T10:47:54.700Z,5.70
2019-04-14T10:51:58.280Z,5.70
2019-04-14T10:56:01.923Z,5.80
2019-04-14T11:00:11.143Z,5.80
2019-04-14T11:04:14.732Z,5.60
2019-04-14T11:08:18.572Z,5.70
2019-04-14T11:12:22.142Z,5.70
2019-04-14T11:16:25.720Z,5.70
2019-04-14T11:20:29.302Z,5.60
2019-04-14T11:24:32.872Z,5.50
2019-04-14T11:28:36.451Z,5.60
2019-04-14T11:32:45.161Z,5.50
2019-04-14T11:36:56.043Z,5.50
2019-04-14T11:41:01.331Z,5.50
2019-04-14T11:45:05.039Z,5.50
2019-04-14T11:49:08.619Z,5.50
2019-04-14T11:53:12.311Z,5.60
2019-04-14T11:57:15.903Z,5.70
2019-04-14T12:01:33.147Z,5.70
2019-04-14T12:05:56.231Z,5.70
2019-04-14T12:10:04.441Z,5.70
2019-04-14T12:14:08.037Z,5.70
2019-04-14T12:18:11.795Z,5.70
2019-04-14T12:22:15.379Z,5.70
2019-04-14T12:26:18.995Z,5.60
2019-04-14T12:30:22.651Z,5.70
2019-04-14T12:34:26.315Z,5.70
2019-04-14T12:38:30.291Z,5.60
2019-04-14T12:42:35.588Z,5.70
2019-04-14T12:46:46.497Z,5.80
2019-04-14T12:50:57.494Z,5.70
2019-04-14T12:55:01.467Z,5.80
2019-04-14T12:59:09.654Z,5.80
2019-04-14T13:03:13.271Z,5.80
2019-04-14T13:07:16.844Z,5.80
2019-04-14T13:11:20.440Z,5.90
2019-04-14T13:15:24.025Z,5.90
2019-04-14T13:19:27.622Z,6.00
2019-04-14T13:23:31.236Z,5.90
2019-04-14T13:27:34.803Z,5.90
2019-04-14T13:31:38.485Z,5.90
2019-04-14T13:35:42.024Z,6.00
2019-04-14T13:39:45.635Z,6.00
2019-04-14T13:43:49.245Z,6.10
2019-04-14T13:47:52.807Z,6.20
2019-04-14T13:51:56.415Z,6.20
2019-04-14T13:56:00.027Z,6.20
2019-04-14T14:00:06.324Z,6.30
2019-04-14T14:04:09.923Z,6.40
2019-04-14T14:08:13.667Z,6.30
2019-04-14T14:12:27.688Z,6.30
2019-04-14T14:16:44.633Z,6.30
2019-04-14T14:20:50.115Z,6.30
2019-04-14T14:25:00.521Z,6.40
2019-04-14T14:29:04.417Z,6.50
2019-04-14T14:33:08.063Z,6.50
2019-04-14T14:37:11.676Z,6.60
2019-04-14T14:41:16.915Z,6.60
2019-04-14T14:45:30.951Z,6.60
2019-04-14T14:49:39.315Z,6.50
2019-04-14T14:53:43.081Z,6.60
2019-04-14T14:57:46.699Z,6.60
2019-04-14T15:01:50.308Z,6.60
2019-04-14T15:05:53.908Z,6.60
2019-04-14T15:09:57.734Z,6.70
2019-04-14T15:14:01.946Z,6.70
2019-04-14T15:18:07.004Z,6.70
2019-04-14T15:22:10.734Z,6.80
2019-04-14T15:26:14.777Z,6.80
2019-04-14T15:30:20.047Z,6.90
2019-04-14T15:34:23.687Z,6.90
2019-04-14T15:38:27.368Z,7.00
2019-04-14T15:42:31.130Z,7.00
2019-04-14T15:46:35.450Z,7.00
2019-04-14T15:50:39.622Z,7.00
2019-04-14T15:54:43.688Z,7.00
2019-04-14T15:59:01.643Z,7.00
2019-04-14T16:03:23.655Z,7.10
2019-04-14T16:07:28.863Z,7.10
2019-04-14T16:11:43.182Z,7.10
2019-04-14T16:15:51.191Z,7.10
2019-04-14T16:19:56.973Z,7.20
2019-04-14T16:24:00.556Z,7.30
2019-04-14T16:28:05.848Z,7.30
2019-04-14T16:32:11.088Z,7.30
2019-04-14T16:36:15.266Z,7.30
2019-04-14T16:40:18.946Z,7.30
2019-04-14T16:44:22.936Z,7.30
2019-04-14T16:48:27.154Z,7.40
2019-04-14T16:52:35.361Z,7.40
2019-04-14T16:56:55.692Z,7.40
2019-04-14T17:01:00.931Z,7.40
2019-04-14T17:05:06.348Z,7.40
2019-04-14T17:09:10.169Z,7.40
2019-04-14T17:13:13.752Z,7.40
2019-04-14T17:17:21.709Z,7.40
2019-04-14T17:21:43.005Z,7.30
2019-04-14T17:25:54.259Z,7.30
2019-04-14T17:30:14.711Z,7.30
2019-04-14T17:34:38.003Z,7.30
2019-04-14T17:38:45.950Z,7.20
2019-04-14T17:42:54.037Z,7.20
2019-04-14T17:46:59.297Z,7.20
2019-04-14T17:51:07.442Z,7.20
2019-04-14T17:55:22.160Z,7.10
2019-04-14T17:59:30.343Z,7.10
2019-04-14T18:03:48.918Z,7.10
2019-04-14T18:07:57.046Z,7.10
2019-04-14T18:12:08.288Z,7.10
2019-04-14T18:16:30.543Z,7.10
2019-04-14T18:20:35.991Z,7.10
2019-04-14T18:24:42.575Z,7.00
2019-04-14T18:28:49.627Z,7.00
2019-04-14T18:33:00.286Z,6.90
2019-04-14T18:37:05.909Z,6.90
2019-04-14T18:41:10.506Z,6.90
2019-04-14T18:45:35.346Z,6.90
2019-04-14T18:49:49.941Z,6.90
2019-04-14T18:54:07.417Z,6.90
2019-04-14T18:58:19.167Z,6.90
2019-04-14T19:02:22.910Z,6.80
2019-04-14T19:06:26.763Z,6.80
2019-04-14T19:10:30.530Z,6.80
2019-04-14T19:14:38.275Z,6.70
2019-04-14T19:18:46.539Z,6.70
2019-04-14T19:22:50.322Z,6.80
2019-04-14T19:26:54.235Z,6.80
2019-04-14T19:30:58.107Z,6.80
2019-04-14T19:35:01.985Z,6.90
2019-04-14T19:39:09.861Z,6.90
2019-04-14T19:43:23.075Z,7.00
2019-04-14T19:47:18.795Z,7.00
2019-04-14T19:51:22.420Z,7.00
2019-04-14T19:55:25.999Z,7.10
2019-04-14T19:59:29.868Z,7.00
2019-04-14T20:03:33.480Z,7.10
2019-04-14T20:07:37.056Z,7.10
2019-04-14T20:11:40.743Z,7.10
2019-04-14T20:15:58.311Z,7.10
2019-04-14T20:20:19.796Z,7.10
2019-04-14T20:24:27.844Z,7.10
2019-04-14T20:28:38.993Z,7.00
2019-04-14T20:32:44.203Z,7.00
2019-04-14T20:36:47.775Z,7.00
2019-04-14T20:40:51.363Z,7.00
2019-04-14T20:44:55.033Z,6.90
2019-04-14T20:48:58.632Z,7.00
2019-04-14T20:53:02.212Z,6.90
2019-04-14T20:57:05.870Z,6.90
2019-04-14T21:01:11.326Z,6.90
2019-04-14T21:05:32.855Z,6.90
2019-04-14T21:09:38.095Z,6.90
2019-04-14T21:13:52.168Z,7.00
2019-04-14T21:17:57.387Z,6.90
2019-04-14T21:22:11.627Z,6.90
2019-04-14T21:26:26.511Z,6.90
2019-04-14T21:30:34.500Z,6.90
2019-04-14T21:34:42.467Z,6.90
2019-04-14T21:38:53.256Z,6.90
2019-04-14T21:42:56.831Z,6.80
2019-04-14T21:47:00.408Z,6.80
2019-04-14T21:51:04.012Z,6.70
2019-04-14T21:55:08.025Z,6.70
2019-04-14T21:59:16.135Z,6.60
2019-04-14T22:03:39.418Z,6.70
2019-04-14T22:07:53.366Z,6.60
2019-04-14T22:11:57.420Z,6.60
2019-04-14T22:16:01.076Z,6.60
2019-04-14T22:20:06.127Z,6.50
2019-04-14T22:24:09.699Z,6.50
2019-04-14T22:28:13.401Z,6.50
2019-04-14T22:32:16.980Z,6.50
2019-04-14T22:36:20.570Z,6.50
2019-04-14T22:40:24.162Z,6.50
2019-04-14T22:44:27.759Z,6.40
2019-04-14T22:48:31.362Z,6.40
2019-04-14T22:52:34.943Z,6.30
2019-04-14T22:56:39.699Z,6.30
2019-04-14T23:00:50.798Z,6.20
2019-04-14T23:05:12.534Z,6.20
2019-04-14T23:09:34.434Z,6.10
2019-04-14T23:13:39.652Z,6.10
2019-04-14T23:17:44.863Z,6.00
2019-04-14T23:21:55.927Z,6.00
2019-04-14T23:25:59.592Z,6.00
2019-04-14T23:30:03.260Z,5.90
2019-04-14T23:34:06.837Z,5.90
2019-04-14T23:38:10.416Z,5.90
2019-04-14T23:42:14.008Z,5.90
2019-04-14T23:46:17.676Z,5.90
2019-04-14T23:50:21.273Z,5.80
2019-04-14T23:54:24.845Z,5.80
2019-04-14T23:58:28.408Z,5.80
